sensor_id;sensor_type;location;lat;lon;timestamp;temperature;humidity
43894;DHT22;29556;50.846;4.442;2023-01-05T00:01:09;12.10;90.70
43894;DHT22;29556;50.846;4.442;2023-01-05T00:03:35;12.20;90.90
43894;DHT22;29556;50.846;4.442;2023-01-05T00:06:03;12.00;90.90
43894;DHT22;29556;50.846;4.442;2023-01-05T00:08:29;12.10;90.90
43894;DHT22;29556;50.846;4.442;2023-01-05T00:10:55;12.20;90.90
43894;DHT22;29556;50.846;4.442;2023-01-05T00:13:39;12.10;90.90
43894;DHT22;29556;50.846;4.442;2023-01-05T00:16:23;12.10;90.90
43894;DHT22;29556;50.846;4.442;2023-01-05T00:19:10;12.00;90.90
43894;DHT22;29556;50.846;4.442;2023-01-05T00:21:54;12.00;91.00
43894;DHT22;29556;50.846;4.442;2023-01-05T00:24:39;12.10;90.90
43894;DHT22;29556;50.846;4.442;2023-01-05T00:27:04;12.00;91.00
43894;DHT22;29556;50.846;4.442;2023-01-05T00:29:30;12.10;91.00
43894;DHT22;29556;50.846;4.442;2023-01-05T00:31:56;12.00;90.90
43894;DHT22;29556;50.846;4.442;2023-01-05T00:34:21;12.10;91.00
43894;DHT22;29556;50.846;4.442;2023-01-05T00:36:47;12.20;90.90
43894;DHT22;29556;50.846;4.442;2023-01-05T00:39:13;12.10;90.80
43894;DHT22;29556;50.846;4.442;2023-01-05T00:41:38;12.10;90.90
43894;DHT22;29556;50.846;4.442;2023-01-05T00:44:04;12.10;90.90
43894;DHT22;29556;50.846;4.442;2023-01-05T00:46:30;12.10;90.90
43894;DHT22;29556;50.846;4.442;2023-01-05T00:48:55;12.10;91.00
43894;DHT22;29556;50.846;4.442;2023-01-05T00:51:21;12.10;91.00
43894;DHT22;29556;50.846;4.442;2023-01-05T00:53:47;12.20;91.00
43894;DHT22;29556;50.846;4.442;2023-01-05T00:56:13;12.10;91.00
43894;DHT22;29556;50.846;4.442;2023-01-05T00:58:39;12.10;90.90
43894;DHT22;29556;50.846;4.442;2023-01-05T01:01:11;12.10;90.80
43894;DHT22;29556;50.846;4.442;2023-01-05T01:03:36;12.20;90.80
43894;DHT22;29556;50.846;4.442;2023-01-05T01:06:02;12.10;90.60
43894;DHT22;29556;50.846;4.442;2023-01-05T01:08:28;12.10;90.70
43894;DHT22;29556;50.846;4.442;2023-01-05T01:10:54;12.20;90.70
43894;DHT22;29556;50.846;4.442;2023-01-05T01:13:19;12.20;90.70
43894;DHT22;29556;50.846;4.442;2023-01-05T01:15:47;12.10;90.50
43894;DHT22;29556;50.846;4.442;2023-01-05T01:18:13;12.10;90.60
43894;DHT22;29556;50.846;4.442;2023-01-05T01:20:38;12.10;90.50
43894;DHT22;29556;50.846;4.442;2023-01-05T01:23:04;12.10;90.60
43894;DHT22;29556;50.846;4.442;2023-01-05T01:25:30;12.10;90.50
43894;DHT22;29556;50.846;4.442;2023-01-05T01:27:55;12.00;90.60
43894;DHT22;29556;50.846;4.442;2023-01-05T01:30:21;12.00;90.60
43894;DHT22;29556;50.846;4.442;2023-01-05T01:32:47;12.10;90.70
43894;DHT22;29556;50.846;4.442;2023-01-05T01:35:12;12.20;90.70
43894;DHT22;29556;50.846;4.442;2023-01-05T01:37:38;12.00;90.60
43894;DHT22;29556;50.846;4.442;2023-01-05T01:40:05;12.00;90.60
43894;DHT22;29556;50.846;4.442;2023-01-05T01:42:31;12.00;90.60
43894;DHT22;29556;50.846;4.442;2023-01-05T01:44:59;12.00;90.70
43894;DHT22;29556;50.846;4.442;2023-01-05T01:47:34;12.00;90.70
43894;DHT22;29556;50.846;4.442;2023-01-05T01:52:44;12.00;90.90
43894;DHT22;29556;50.846;4.442;2023-01-05T01:55:12;12.00;90.90
43894;DHT22;29556;50.846;4.442;2023-01-05T01:57:39;12.10;90.80
43894;DHT22;29556;50.846;4.442;2023-01-05T02:00:08;12.10;90.80
43894;DHT22;29556;50.846;4.442;2023-01-05T02:02:34;12.10;90.70
43894;DHT22;29556;50.846;4.442;2023-01-05T02:05:03;12.10;90.70
43894;DHT22;29556;50.846;4.442;2023-01-05T02:07:32;12.10;90.60
43894;DHT22;29556;50.846;4.442;2023-01-05T02:09:59;12.20;90.50
43894;DHT22;29556;50.846;4.442;2023-01-05T02:12:37;12.20;90.40
43894;DHT22;29556;50.846;4.442;2023-01-05T02:15:19;12.30;90.40
43894;DHT22;29556;50.846;4.442;2023-01-05T02:18:28;12.30;90.30
43894;DHT22;29556;50.846;4.442;2023-01-05T02:23:58;12.20;90.30
43894;DHT22;29556;50.846;4.442;2023-01-05T02:29:47;12.30;90.30
43894;DHT22;29556;50.846;4.442;2023-01-05T02:32:22;12.30;90.20
43894;DHT22;29556;50.846;4.442;2023-01-05T02:40:28;12.30;90.10
43894;DHT22;29556;50.846;4.442;2023-01-05T02:42:57;12.40;90.10
43894;DHT22;29556;50.846;4.442;2023-01-05T02:45:24;12.40;90.00
43894;DHT22;29556;50.846;4.442;2023-01-05T02:47:50;12.40;90.00
43894;DHT22;29556;50.846;4.442;2023-01-05T02:50:23;12.30;89.80
43894;DHT22;29556;50.846;4.442;2023-01-05T02:53:18;12.30;89.80
43894;DHT22;29556;50.846;4.442;2023-01-05T02:55:47;12.30;89.90
43894;DHT22;29556;50.846;4.442;2023-01-05T02:58:24;12.30;89.70
43894;DHT22;29556;50.846;4.442;2023-01-05T03:00:57;12.30;89.70
43894;DHT22;29556;50.846;4.442;2023-01-05T03:06:10;12.30;89.80
43894;DHT22;29556;50.846;4.442;2023-01-05T03:08:43;12.20;90.00
43894;DHT22;29556;50.846;4.442;2023-01-05T03:11:12;12.30;90.10
43894;DHT22;29556;50.846;4.442;2023-01-05T03:14:02;12.30;90.00
43894;DHT22;29556;50.846;4.442;2023-01-05T03:16:34;12.30;89.80
43894;DHT22;29556;50.846;4.442;2023-01-05T03:19:02;12.30;89.90
43894;DHT22;29556;50.846;4.442;2023-01-05T03:21:48;12.30;90.00
43894;DHT22;29556;50.846;4.442;2023-01-05T03:24:34;12.40;89.90
43894;DHT22;29556;50.846;4.442;2023-01-05T03:27:19;12.20;89.70
43894;DHT22;29556;50.846;4.442;2023-01-05T03:30:05;12.40;89.80
43894;DHT22;29556;50.846;4.442;2023-01-05T03:32:53;12.20;89.60
43894;DHT22;29556;50.846;4.442;2023-01-05T03:35:41;12.20;89.70
43894;DHT22;29556;50.846;4.442;2023-01-05T03:38:35;12.30;89.70
43894;DHT22;29556;50.846;4.442;2023-01-05T03:41:04;12.20;89.40
43894;DHT22;29556;50.846;4.442;2023-01-05T03:43:37;12.20;89.30
43894;DHT22;29556;50.846;4.442;2023-01-05T03:46:13;12.20;89.30
43894;DHT22;29556;50.846;4.442;2023-01-05T03:48:39;12.30;89.40
43894;DHT22;29556;50.846;4.442;2023-01-05T03:51:05;12.30;89.40
43894;DHT22;29556;50.846;4.442;2023-01-05T03:53:31;12.30;89.10
43894;DHT22;29556;50.846;4.442;2023-01-05T03:55:57;12.30;88.80
43894;DHT22;29556;50.846;4.442;2023-01-05T03:58:22;12.30;89.20
43894;DHT22;29556;50.846;4.442;2023-01-05T04:00:48;12.40;89.20
43894;DHT22;29556;50.846;4.442;2023-01-05T04:03:14;12.40;89.30
43894;DHT22;29556;50.846;4.442;2023-01-05T04:05:39;12.40;88.90
43894;DHT22;29556;50.846;4.442;2023-01-05T04:08:05;12.30;89.00
43894;DHT22;29556;50.846;4.442;2023-01-05T04:10:30;12.20;88.80
43894;DHT22;29556;50.846;4.442;2023-01-05T04:12:56;12.30;88.90
43894;DHT22;29556;50.846;4.442;2023-01-05T04:15:22;12.30;88.90
43894;DHT22;29556;50.846;4.442;2023-01-05T04:17:47;12.30;88.60
43894;DHT22;29556;50.846;4.442;2023-01-05T04:20:13;12.30;88.60
43894;DHT22;29556;50.846;4.442;2023-01-05T04:22:39;12.30;88.40
43894;DHT22;29556;50.846;4.442;2023-01-05T04:25:05;12.40;88.10
43894;DHT22;29556;50.846;4.442;2023-01-05T04:27:31;12.30;88.10
43894;DHT22;29556;50.846;4.442;2023-01-05T04:29:56;12.40;88.20
43894;DHT22;29556;50.846;4.442;2023-01-05T04:32:22;12.40;88.00
43894;DHT22;29556;50.846;4.442;2023-01-05T04:34:48;12.40;88.10
43894;DHT22;29556;50.846;4.442;2023-01-05T04:37:14;12.40;87.90
43894;DHT22;29556;50.846;4.442;2023-01-05T04:39:39;12.50;87.80
43894;DHT22;29556;50.846;4.442;2023-01-05T04:42:05;12.40;87.70
43894;DHT22;29556;50.846;4.442;2023-01-05T04:44:30;12.50;87.60
43894;DHT22;29556;50.846;4.442;2023-01-05T04:46:56;12.40;87.50
43894;DHT22;29556;50.846;4.442;2023-01-05T04:49:22;12.50;87.60
43894;DHT22;29556;50.846;4.442;2023-01-05T04:51:47;12.40;88.30
43894;DHT22;29556;50.846;4.442;2023-01-05T04:54:13;12.50;87.50
43894;DHT22;29556;50.846;4.442;2023-01-05T04:56:39;12.40;87.30
43894;DHT22;29556;50.846;4.442;2023-01-05T04:59:04;12.40;87.30
43894;DHT22;29556;50.846;4.442;2023-01-05T05:01:30;12.40;87.20
43894;DHT22;29556;50.846;4.442;2023-01-05T05:03:56;12.30;87.00
43894;DHT22;29556;50.846;4.442;2023-01-05T05:06:21;12.30;87.20
43894;DHT22;29556;50.846;4.442;2023-01-05T05:08:47;12.30;87.20
43894;DHT22;29556;50.846;4.442;2023-01-05T05:11:13;12.30;87.00
43894;DHT22;29556;50.846;4.442;2023-01-05T05:13:39;12.30;87.00
43894;DHT22;29556;50.846;4.442;2023-01-05T05:16:04;12.30;87.10
43894;DHT22;29556;50.846;4.442;2023-01-05T05:18:30;12.30;87.10
43894;DHT22;29556;50.846;4.442;2023-01-05T05:20:56;12.20;87.20
43894;DHT22;29556;50.846;4.442;2023-01-05T05:23:22;12.20;87.10
43894;DHT22;29556;50.846;4.442;2023-01-05T05:25:51;12.20;87.20
43894;DHT22;29556;50.846;4.442;2023-01-05T05:28:18;12.20;87.20
43894;DHT22;29556;50.846;4.442;2023-01-05T05:30:44;12.20;87.20
43894;DHT22;29556;50.846;4.442;2023-01-05T05:33:12;12.20;87.30
43894;DHT22;29556;50.846;4.442;2023-01-05T05:35:38;12.20;87.50
43894;DHT22;29556;50.846;4.442;2023-01-05T05:38:03;12.20;87.60
43894;DHT22;29556;50.846;4.442;2023-01-05T05:40:29;12.10;87.70
43894;DHT22;29556;50.846;4.442;2023-01-05T05:42:54;12.20;87.90
43894;DHT22;29556;50.846;4.442;2023-01-05T05:45:20;12.10;88.20
43894;DHT22;29556;50.846;4.442;2023-01-05T05:47:46;12.10;88.40
43894;DHT22;29556;50.846;4.442;2023-01-05T05:50:11;12.20;88.50
43894;DHT22;29556;50.846;4.442;2023-01-05T05:52:37;12.20;88.30
43894;DHT22;29556;50.846;4.442;2023-01-05T05:55:03;12.20;88.30
43894;DHT22;29556;50.846;4.442;2023-01-05T05:57:29;12.20;88.30
43894;DHT22;29556;50.846;4.442;2023-01-05T05:59:55;12.30;88.20
43894;DHT22;29556;50.846;4.442;2023-01-05T06:02:20;12.20;88.20
43894;DHT22;29556;50.846;4.442;2023-01-05T06:04:46;12.20;88.40
43894;DHT22;29556;50.846;4.442;2023-01-05T06:07:12;12.30;88.40
43894;DHT22;29556;50.846;4.442;2023-01-05T06:09:37;12.30;88.40
43894;DHT22;29556;50.846;4.442;2023-01-05T06:12:03;12.30;88.40
43894;DHT22;29556;50.846;4.442;2023-01-05T06:14:29;12.20;88.50
43894;DHT22;29556;50.846;4.442;2023-01-05T06:16:55;12.30;88.60
43894;DHT22;29556;50.846;4.442;2023-01-05T06:19:20;12.20;88.50
43894;DHT22;29556;50.846;4.442;2023-01-05T06:21:46;12.30;88.50
43894;DHT22;29556;50.846;4.442;2023-01-05T06:24:11;12.30;88.40
43894;DHT22;29556;50.846;4.442;2023-01-05T06:26:37;12.30;88.20
43894;DHT22;29556;50.846;4.442;2023-01-05T06:29:03;12.20;87.90
43894;DHT22;29556;50.846;4.442;2023-01-05T06:31:28;12.20;88.00
43894;DHT22;29556;50.846;4.442;2023-01-05T06:33:54;12.20;88.30
43894;DHT22;29556;50.846;4.442;2023-01-05T06:36:20;12.20;88.20
43894;DHT22;29556;50.846;4.442;2023-01-05T06:38:45;12.10;88.00
43894;DHT22;29556;50.846;4.442;2023-01-05T06:41:11;12.20;88.10
43894;DHT22;29556;50.846;4.442;2023-01-05T06:43:36;12.10;88.10
43894;DHT22;29556;50.846;4.442;2023-01-05T06:46:02;12.10;88.10
43894;DHT22;29556;50.846;4.442;2023-01-05T06:48:28;12.20;88.10
43894;DHT22;29556;50.846;4.442;2023-01-05T06:50:54;12.20;87.80
43894;DHT22;29556;50.846;4.442;2023-01-05T06:53:19;12.20;87.90
43894;DHT22;29556;50.846;4.442;2023-01-05T06:55:45;12.20;87.50
43894;DHT22;29556;50.846;4.442;2023-01-05T06:58:11;12.20;87.50
43894;DHT22;29556;50.846;4.442;2023-01-05T07:00:36;12.20;87.50
43894;DHT22;29556;50.846;4.442;2023-01-05T07:03:02;12.20;87.40
43894;DHT22;29556;50.846;4.442;2023-01-05T07:05:28;12.20;87.20
43894;DHT22;29556;50.846;4.442;2023-01-05T07:07:53;12.20;87.10
43894;DHT22;29556;50.846;4.442;2023-01-05T07:10:19;12.20;87.10
43894;DHT22;29556;50.846;4.442;2023-01-05T07:12:45;12.20;87.00
43894;DHT22;29556;50.846;4.442;2023-01-05T07:15:11;12.20;87.00
43894;DHT22;29556;50.846;4.442;2023-01-05T07:17:37;12.20;87.00
43894;DHT22;29556;50.846;4.442;2023-01-05T07:20:04;12.30;87.00
43894;DHT22;29556;50.846;4.442;2023-01-05T07:22:30;12.30;86.70
43894;DHT22;29556;50.846;4.442;2023-01-05T07:24:57;12.30;86.50
43894;DHT22;29556;50.846;4.442;2023-01-05T07:27:25;12.30;86.50
43894;DHT22;29556;50.846;4.442;2023-01-05T07:29:51;12.30;86.20
43894;DHT22;29556;50.846;4.442;2023-01-05T07:32:17;12.30;86.50
43894;DHT22;29556;50.846;4.442;2023-01-05T07:34:43;12.30;86.30
43894;DHT22;29556;50.846;4.442;2023-01-05T07:37:08;12.30;86.20
43894;DHT22;29556;50.846;4.442;2023-01-05T07:39:35;12.40;86.20
43894;DHT22;29556;50.846;4.442;2023-01-05T07:42:00;12.40;85.80
43894;DHT22;29556;50.846;4.442;2023-01-05T07:44:26;12.20;86.10
43894;DHT22;29556;50.846;4.442;2023-01-05T07:46:52;12.20;86.10
43894;DHT22;29556;50.846;4.442;2023-01-05T07:49:18;12.30;86.20
43894;DHT22;29556;50.846;4.442;2023-01-05T07:51:43;12.20;86.10
43894;DHT22;29556;50.846;4.442;2023-01-05T07:54:09;12.20;86.40
43894;DHT22;29556;50.846;4.442;2023-01-05T07:56:35;12.20;86.40
43894;DHT22;29556;50.846;4.442;2023-01-05T07:59:00;12.30;86.40
43894;DHT22;29556;50.846;4.442;2023-01-05T08:01:26;12.30;86.40
43894;DHT22;29556;50.846;4.442;2023-01-05T08:03:51;12.20;86.30
43894;DHT22;29556;50.846;4.442;2023-01-05T08:06:18;12.20;86.20
43894;DHT22;29556;50.846;4.442;2023-01-05T08:08:46;12.30;86.20
43894;DHT22;29556;50.846;4.442;2023-01-05T08:11:15;12.30;86.10
43894;DHT22;29556;50.846;4.442;2023-01-05T08:13:43;12.40;85.90
43894;DHT22;29556;50.846;4.442;2023-01-05T08:16:31;12.30;86.10
43894;DHT22;29556;50.846;4.442;2023-01-05T08:18:58;12.30;86.20
43894;DHT22;29556;50.846;4.442;2023-01-05T08:21:24;12.40;86.20
43894;DHT22;29556;50.846;4.442;2023-01-05T08:23:49;12.40;86.10
43894;DHT22;29556;50.846;4.442;2023-01-05T08:26:19;12.40;86.10
43894;DHT22;29556;50.846;4.442;2023-01-05T08:28:45;12.40;86.10
43894;DHT22;29556;50.846;4.442;2023-01-05T08:31:20;12.40;86.00
43894;DHT22;29556;50.846;4.442;2023-01-05T08:33:46;12.40;86.20
43894;DHT22;29556;50.846;4.442;2023-01-05T08:36:14;12.40;86.30
43894;DHT22;29556;50.846;4.442;2023-01-05T08:38:41;12.40;86.20
43894;DHT22;29556;50.846;4.442;2023-01-05T08:41:34;12.50;86.50
43894;DHT22;29556;50.846;4.442;2023-01-05T08:44:02;12.40;86.40
43894;DHT22;29556;50.846;4.442;2023-01-05T08:46:31;12.40;86.50
43894;DHT22;29556;50.846;4.442;2023-01-05T08:49:02;12.40;86.60
43894;DHT22;29556;50.846;4.442;2023-01-05T08:51:29;12.30;86.50
43894;DHT22;29556;50.846;4.442;2023-01-05T08:53:56;12.40;86.80
43894;DHT22;29556;50.846;4.442;2023-01-05T08:56:23;12.30;86.70
43894;DHT22;29556;50.846;4.442;2023-01-05T08:58:50;12.40;86.80
43894;DHT22;29556;50.846;4.442;2023-01-05T09:01:17;12.40;86.60
43894;DHT22;29556;50.846;4.442;2023-01-05T09:03:44;12.40;86.70
43894;DHT22;29556;50.846;4.442;2023-01-05T09:06:11;12.40;86.70
43894;DHT22;29556;50.846;4.442;2023-01-05T09:08:38;12.50;86.70
43894;DHT22;29556;50.846;4.442;2023-01-05T09:11:24;12.40;86.40
43894;DHT22;29556;50.846;4.442;2023-01-05T09:13:56;12.40;86.70
43894;DHT22;29556;50.846;4.442;2023-01-05T09:16:24;12.40;86.50
43894;DHT22;29556;50.846;4.442;2023-01-05T09:18:50;12.50;87.50
43894;DHT22;29556;50.846;4.442;2023-01-05T09:21:16;12.40;86.70
43894;DHT22;29556;50.846;4.442;2023-01-05T09:23:42;12.40;86.40
43894;DHT22;29556;50.846;4.442;2023-01-05T09:26:11;12.50;86.50
43894;DHT22;29556;50.846;4.442;2023-01-05T09:28:37;12.50;86.20
43894;DHT22;29556;50.846;4.442;2023-01-05T09:31:12;12.50;86.20
43894;DHT22;29556;50.846;4.442;2023-01-05T09:33:39;12.60;86.30
43894;DHT22;29556;50.846;4.442;2023-01-05T09:36:07;12.50;86.20
43894;DHT22;29556;50.846;4.442;2023-01-05T09:38:33;12.50;86.20
43894;DHT22;29556;50.846;4.442;2023-01-05T09:43:39;12.50;86.20
43894;DHT22;29556;50.846;4.442;2023-01-05T09:46:12;12.60;86.20
43894;DHT22;29556;50.846;4.442;2023-01-05T09:48:41;12.60;86.00
43894;DHT22;29556;50.846;4.442;2023-01-05T09:51:08;12.60;85.80
43894;DHT22;29556;50.846;4.442;2023-01-05T09:53:35;12.60;85.70
43894;DHT22;29556;50.846;4.442;2023-01-05T09:56:01;12.70;85.60
43894;DHT22;29556;50.846;4.442;2023-01-05T09:58:35;12.80;85.20
43894;DHT22;29556;50.846;4.442;2023-01-05T10:01:12;12.70;85.10
43894;DHT22;29556;50.846;4.442;2023-01-05T10:04:00;12.70;85.40
43894;DHT22;29556;50.846;4.442;2023-01-05T10:06:38;12.70;85.00
43894;DHT22;29556;50.846;4.442;2023-01-05T10:09:07;12.80;84.90
43894;DHT22;29556;50.846;4.442;2023-01-05T10:11:48;12.80;84.70
43894;DHT22;29556;50.846;4.442;2023-01-05T10:14:47;12.90;84.80
43894;DHT22;29556;50.846;4.442;2023-01-05T10:17:17;12.90;84.20
43894;DHT22;29556;50.846;4.442;2023-01-05T10:19:44;13.00;84.10
43894;DHT22;29556;50.846;4.442;2023-01-05T10:22:33;13.00;84.20
43894;DHT22;29556;50.846;4.442;2023-01-05T10:25:20;13.00;83.80
43894;DHT22;29556;50.846;4.442;2023-01-05T10:27:56;13.10;83.70
43894;DHT22;29556;50.846;4.442;2023-01-05T10:31:12;13.10;83.60
43894;DHT22;29556;50.846;4.442;2023-01-05T10:36:17;13.10;82.80
43894;DHT22;29556;50.846;4.442;2023-01-05T10:44:51;13.10;82.80
43894;DHT22;29556;50.846;4.442;2023-01-05T10:47:18;13.10;82.60
43894;DHT22;29556;50.846;4.442;2023-01-05T10:49:46;13.00;82.80
43894;DHT22;29556;50.846;4.442;2023-01-05T10:52:15;13.00;83.00
43894;DHT22;29556;50.846;4.442;2023-01-05T10:54:47;12.90;82.70
43894;DHT22;29556;50.846;4.442;2023-01-05T10:57:30;12.80;82.90
43894;DHT22;29556;50.846;4.442;2023-01-05T10:59:59;12.90;83.80
43894;DHT22;29556;50.846;4.442;2023-01-05T11:02:27;12.80;84.00
43894;DHT22;29556;50.846;4.442;2023-01-05T11:05:05;12.80;84.10
43894;DHT22;29556;50.846;4.442;2023-01-05T11:07:31;12.90;84.10
43894;DHT22;29556;50.846;4.442;2023-01-05T11:10:39;12.90;83.50
43894;DHT22;29556;50.846;4.442;2023-01-05T11:15:58;12.90;83.90
43894;DHT22;29556;50.846;4.442;2023-01-05T11:23:47;13.00;83.80
43894;DHT22;29556;50.846;4.442;2023-01-05T11:31:47;13.20;83.70
43894;DHT22;29556;50.846;4.442;2023-01-05T11:42:17;13.50;83.90
43894;DHT22;29556;50.846;4.442;2023-01-05T11:44:52;13.50;84.00
43894;DHT22;29556;50.846;4.442;2023-01-05T11:49:58;13.70;83.60
43894;DHT22;29556;50.846;4.442;2023-01-05T11:52:37;13.80;83.30
43894;DHT22;29556;50.846;4.442;2023-01-05T11:55:29;13.70;83.40
43894;DHT22;29556;50.846;4.442;2023-01-05T11:58:22;13.70;83.20
43894;DHT22;29556;50.846;4.442;2023-01-05T12:09:25;13.60;83.50
43894;DHT22;29556;50.846;4.442;2023-01-05T12:15:11;13.60;84.20
43894;DHT22;29556;50.846;4.442;2023-01-05T12:17:53;13.60;84.30
43894;DHT22;29556;50.846;4.442;2023-01-05T12:39:40;13.90;84.30
43894;DHT22;29556;50.846;4.442;2023-01-05T12:45:33;14.00;85.00
43894;DHT22;29556;50.846;4.442;2023-01-05T12:48:18;14.00;85.40
43894;DHT22;29556;50.846;4.442;2023-01-05T12:51:04;13.90;86.10
43894;DHT22;29556;50.846;4.442;2023-01-05T12:53:42;13.90;86.40
43894;DHT22;29556;50.846;4.442;2023-01-05T12:58:55;14.00;86.70
43894;DHT22;29556;50.846;4.442;2023-01-05T13:01:26;14.00;86.90
43894;DHT22;29556;50.846;4.442;2023-01-05T13:04:01;14.00;87.00
43894;DHT22;29556;50.846;4.442;2023-01-05T13:06:37;13.90;87.20
43894;DHT22;29556;50.846;4.442;2023-01-05T13:09:22;14.00;87.20
43894;DHT22;29556;50.846;4.442;2023-01-05T13:11:58;14.00;87.20
43894;DHT22;29556;50.846;4.442;2023-01-05T13:14:28;14.00;87.10
43894;DHT22;29556;50.846;4.442;2023-01-05T13:17:02;14.00;87.00
43894;DHT22;29556;50.846;4.442;2023-01-05T13:19:34;14.10;87.00
43894;DHT22;29556;50.846;4.442;2023-01-05T13:22:04;14.10;86.90
43894;DHT22;29556;50.846;4.442;2023-01-05T13:24:50;14.10;86.90
43894;DHT22;29556;50.846;4.442;2023-01-05T13:27:17;14.10;86.90
43894;DHT22;29556;50.846;4.442;2023-01-05T13:29:49;14.10;87.60
43894;DHT22;29556;50.846;4.442;2023-01-05T13:32:40;14.10;88.10
43894;DHT22;29556;50.846;4.442;2023-01-05T13:46:31;13.90;90.20
43894;DHT22;29556;50.846;4.442;2023-01-05T13:51:59;14.00;90.20
43894;DHT22;29556;50.846;4.442;2023-01-05T13:54:39;14.00;90.10
43894;DHT22;29556;50.846;4.442;2023-01-05T13:57:08;14.00;90.30
43894;DHT22;29556;50.846;4.442;2023-01-05T13:59:37;14.00;90.30
43894;DHT22;29556;50.846;4.442;2023-01-05T14:02:04;14.00;90.30
43894;DHT22;29556;50.846;4.442;2023-01-05T14:04:47;14.10;90.40
43894;DHT22;29556;50.846;4.442;2023-01-05T14:07:15;14.00;90.50
43894;DHT22;29556;50.846;4.442;2023-01-05T14:09:48;14.00;90.60
43894;DHT22;29556;50.846;4.442;2023-01-05T14:20:37;14.00;91.00
43894;DHT22;29556;50.846;4.442;2023-01-05T14:25:57;13.90;91.20
43894;DHT22;29556;50.846;4.442;2023-01-05T14:36:39;13.90;91.60
43894;DHT22;29556;50.846;4.442;2023-01-05T14:39:21;13.90;91.60
43894;DHT22;29556;50.846;4.442;2023-01-05T14:44:45;13.90;91.80
43894;DHT22;29556;50.846;4.442;2023-01-05T14:47:13;13.90;91.70
43894;DHT22;29556;50.846;4.442;2023-01-05T14:49:51;14.00;91.80
43894;DHT22;29556;50.846;4.442;2023-01-05T14:52:52;13.90;91.80
43894;DHT22;29556;50.846;4.442;2023-01-05T14:58:51;13.90;91.90
43894;DHT22;29556;50.846;4.442;2023-01-05T15:01:20;13.90;91.90
43894;DHT22;29556;50.846;4.442;2023-01-05T15:03:49;13.90;91.90
43894;DHT22;29556;50.846;4.442;2023-01-05T15:06:36;13.90;91.90
43894;DHT22;29556;50.846;4.442;2023-01-05T15:09:17;13.90;91.90
43894;DHT22;29556;50.846;4.442;2023-01-05T15:20:56;13.90;91.90
43894;DHT22;29556;50.846;4.442;2023-01-05T15:32:23;13.90;92.00
43894;DHT22;29556;50.846;4.442;2023-01-05T15:34:53;13.90;92.00
43894;DHT22;29556;50.846;4.442;2023-01-05T15:37:29;13.90;92.10
43894;DHT22;29556;50.846;4.442;2023-01-05T15:39:56;13.80;92.20
43894;DHT22;29556;50.846;4.442;2023-01-05T15:42:27;13.80;92.30
43894;DHT22;29556;50.846;4.442;2023-01-05T15:44:57;13.80;92.30
43894;DHT22;29556;50.846;4.442;2023-01-05T15:47:24;13.90;92.20
43894;DHT22;29556;50.846;4.442;2023-01-05T15:49:58;14.00;92.20
43894;DHT22;29556;50.846;4.442;2023-01-05T15:52:38;13.90;92.10
43894;DHT22;29556;50.846;4.442;2023-01-05T15:55:13;13.90;92.20
43894;DHT22;29556;50.846;4.442;2023-01-05T15:57:39;13.90;92.30
43894;DHT22;29556;50.846;4.442;2023-01-05T16:00:23;13.80;92.50
43894;DHT22;29556;50.846;4.442;2023-01-05T16:02:50;13.80;92.50
43894;DHT22;29556;50.846;4.442;2023-01-05T16:05:18;13.80;92.50
43894;DHT22;29556;50.846;4.442;2023-01-05T16:07:57;13.80;92.50
43894;DHT22;29556;50.846;4.442;2023-01-05T16:10:50;13.80;92.50
43894;DHT22;29556;50.846;4.442;2023-01-05T16:15:57;13.80;92.50
43894;DHT22;29556;50.846;4.442;2023-01-05T16:18:38;13.90;92.50
43894;DHT22;29556;50.846;4.442;2023-01-05T16:21:33;13.80;92.50
43894;DHT22;29556;50.846;4.442;2023-01-05T16:24:02;13.90;92.50
43894;DHT22;29556;50.846;4.442;2023-01-05T16:26:28;13.90;92.60
43894;DHT22;29556;50.846;4.442;2023-01-05T16:28:54;13.80;92.60
43894;DHT22;29556;50.846;4.442;2023-01-05T16:31:34;13.80;92.60
43894;DHT22;29556;50.846;4.442;2023-01-05T16:34:15;13.80;92.70
43894;DHT22;29556;50.846;4.442;2023-01-05T16:37:04;13.80;92.80
43894;DHT22;29556;50.846;4.442;2023-01-05T16:39:37;13.80;92.80
43894;DHT22;29556;50.846;4.442;2023-01-05T16:42:22;13.80;92.80
43894;DHT22;29556;50.846;4.442;2023-01-05T16:45:16;13.70;92.90
43894;DHT22;29556;50.846;4.442;2023-01-05T16:47:43;13.70;93.00
43894;DHT22;29556;50.846;4.442;2023-01-05T16:50:50;13.70;93.30
43894;DHT22;29556;50.846;4.442;2023-01-05T16:53:16;13.60;93.00
43894;DHT22;29556;50.846;4.442;2023-01-05T16:55:42;13.60;93.00
43894;DHT22;29556;50.846;4.442;2023-01-05T17:03:35;13.70;93.10
43894;DHT22;29556;50.846;4.442;2023-01-05T17:06:02;13.70;93.10
43894;DHT22;29556;50.846;4.442;2023-01-05T17:08:31;13.70;93.10
43894;DHT22;29556;50.846;4.442;2023-01-05T17:11:02;13.70;93.00
43894;DHT22;29556;50.846;4.442;2023-01-05T17:13:36;13.70;93.00
43894;DHT22;29556;50.846;4.442;2023-01-05T17:16:04;13.80;93.10
43894;DHT22;29556;50.846;4.442;2023-01-05T17:18:30;13.70;93.20
43894;DHT22;29556;50.846;4.442;2023-01-05T17:20:57;13.60;93.20
43894;DHT22;29556;50.846;4.442;2023-01-05T17:23:29;13.60;93.20
43894;DHT22;29556;50.846;4.442;2023-01-05T17:26:04;13.70;93.20
43894;DHT22;29556;50.846;4.442;2023-01-05T17:28:30;13.80;93.20
43894;DHT22;29556;50.846;4.442;2023-01-05T17:30:56;13.70;93.20
43894;DHT22;29556;50.846;4.442;2023-01-05T17:33:22;13.70;93.10
43894;DHT22;29556;50.846;4.442;2023-01-05T17:35:48;13.70;93.10
43894;DHT22;29556;50.846;4.442;2023-01-05T17:38:14;13.70;93.10
43894;DHT22;29556;50.846;4.442;2023-01-05T17:40:40;13.60;93.10
43894;DHT22;29556;50.846;4.442;2023-01-05T17:43:05;13.60;93.10
43894;DHT22;29556;50.846;4.442;2023-01-05T17:45:31;13.60;93.20
43894;DHT22;29556;50.846;4.442;2023-01-05T17:47:57;13.50;93.20
43894;DHT22;29556;50.846;4.442;2023-01-05T17:50:28;13.50;93.20
43894;DHT22;29556;50.846;4.442;2023-01-05T17:52:56;13.50;93.30
43894;DHT22;29556;50.846;4.442;2023-01-05T17:55:22;13.60;93.20
43894;DHT22;29556;50.846;4.442;2023-01-05T17:57:48;13.50;93.30
43894;DHT22;29556;50.846;4.442;2023-01-05T18:00:20;13.60;93.30
43894;DHT22;29556;50.846;4.442;2023-01-05T18:02:47;13.50;93.50
43894;DHT22;29556;50.846;4.442;2023-01-05T18:05:13;13.50;93.70
43894;DHT22;29556;50.846;4.442;2023-01-05T18:07:40;13.50;93.40
43894;DHT22;29556;50.846;4.442;2023-01-05T18:10:08;13.50;93.40
43894;DHT22;29556;50.846;4.442;2023-01-05T18:12:34;13.50;93.30
43894;DHT22;29556;50.846;4.442;2023-01-05T18:15:00;13.50;93.40
43894;DHT22;29556;50.846;4.442;2023-01-05T18:17:26;13.50;93.40
43894;DHT22;29556;50.846;4.442;2023-01-05T18:19:52;13.50;93.30
43894;DHT22;29556;50.846;4.442;2023-01-05T18:22:17;13.50;93.30
43894;DHT22;29556;50.846;4.442;2023-01-05T18:24:43;13.60;93.20
43894;DHT22;29556;50.846;4.442;2023-01-05T18:27:18;13.60;93.20